Time;durP1;ratioP1;P1;durP2;ratioP2;P2;SDS_P1;SDS_P2;PMS_P1;PMS_P2;Temp;Humidity;BMP_temperature;BMP_pressure;BME280_temperature;BME280_humidity;BME280_pressure;Samples;Min_cycle;Max_cycle;Signal;HPM_P1;HPM_P2
2022/06/29 00:00:43;;;;;;;863.78;818.63;;;;;;;21.59;77.10;99619.91;5024241;28;20211;-72
2022/06/29 00:03:11;;;;;;;887.15;839.78;;;;;;;21.53;75.88;99596.00;5012488;28;20226;-72
2022/06/29 00:05:40;;;;;;;848.55;805.05;;;;;;;21.50;76.80;99597.97;5010945;28;20238;-71
2022/06/29 00:08:08;;;;;;;652.67;621.20;;;;;;;21.49;76.80;99610.56;5000472;28;20207;-72
2022/06/29 00:10:37;;;;;;;803.15;763.60;;;21.30;99.90;;;21.43;75.99;99583.94;5014921;28;20232;-72
2022/06/29 00:13:06;;;;;;;910.85;861.70;;;;;;;21.41;76.82;99601.97;4987408;28;20219;-72
2022/06/29 00:15:34;;;;;;;894.90;848.15;;;;;;;21.36;76.51;99582.50;5007261;28;20231;-72
2022/06/29 00:18:02;;;;;;;881.83;836.47;;;;;;;21.31;76.08;99573.78;5024118;28;20200;-71
2022/06/29 00:20:30;;;;;;;907.50;859.45;;;;;;;21.29;77.39;99589.13;5006845;28;20208;-72
2022/06/29 00:22:58;;;;;;;768.85;729.65;;;;;;;21.20;77.25;99576.97;5006278;28;20649;-72
2022/06/29 00:25:27;;;;;;;705.72;672.03;;;;;;;21.23;77.24;99578.66;5017981;28;20223;-72
2022/06/29 00:27:55;;;;;;;859.00;814.83;;;;;;;21.26;76.76;99589.28;4977995;28;20207;-72
2022/06/29 00:30:23;;;;;;;905.97;854.80;;;;;;;21.18;77.38;99588.75;5006823;28;20232;-72
2022/06/29 00:32:51;;;;;;;908.10;855.60;;;;;;;21.16;77.11;99590.63;5002874;28;20214;-72
2022/06/29 00:35:19;;;;;;;898.88;846.97;;;;;;;21.07;77.18;99586.56;5005559;28;20239;-73
2022/06/29 00:37:47;;;;;;;897.55;847.45;;;20.90;99.90;;;21.08;77.83;99591.00;5023385;28;20594;-72
2022/06/29 00:40:16;;;;;;;883.72;837.38;;;;;;;21.02;78.69;99608.28;5015951;28;20216;-71
2022/06/29 00:42:45;;;;;;;822.28;780.17;;;;;;;21.01;77.89;99603.84;5021033;28;20211;-72
2022/06/29 00:45:13;;;;;;;848.13;804.05;;;;;;;20.98;78.70;99605.81;5010564;28;20231;-71
2022/06/29 00:47:41;;;;;;;728.35;692.55;;;20.70;99.90;;;20.97;79.12;99612.13;5020401;28;20211;-72
2022/06/29 00:50:09;;;;;;;673.67;641.80;;;20.40;99.90;;;20.95;77.46;99605.97;4995138;28;20224;-72
2022/06/29 00:52:37;;;;;;;902.58;850.03;;;;;;;20.97;79.33;99617.50;5016003;28;20584;-72
2022/06/29 00:55:10;;;;;;;898.08;845.90;;;20.80;99.90;;;20.91;79.33;99624.03;4995778;28;20227;-72
2022/06/29 00:57:42;;;;;;;891.33;838.38;;;20.80;99.90;;;20.95;78.82;99625.66;5004010;28;20220;-72
2022/06/29 01:00:12;;;;;;;849.63;806.08;;;20.80;99.90;;;20.91;79.20;99621.34;5016918;28;20203;-72
2022/06/29 01:02:40;;;;;;;894.78;844.58;;;;;;;20.87;79.11;99633.19;5016007;28;20215;-72
2022/06/29 01:05:09;;;;;;;892.05;842.70;;;;;;;20.85;79.47;99637.75;5030417;28;20230;-72
2022/06/29 01:07:38;;;;;;;872.15;826.42;;;20.40;99.90;;;20.79;80.00;99640.69;5026474;28;20206;-71
2022/06/29 01:10:06;;;;;;;843.30;799.80;;;;;;;20.84;78.25;99630.63;4999911;28;20590;-72
2022/06/29 01:12:35;;;;;;;826.95;784.67;;;;;;;20.84;78.87;99627.06;5019458;28;20204;-72
2022/06/29 01:15:04;;;;;;;789.42;750.78;;;20.70;99.90;;;20.87;78.71;99635.88;4993547;28;20227;-72
2022/06/29 01:17:32;;;;;;;761.83;724.47;;;;;;;20.84;78.62;99636.00;5011827;28;20219;-72
2022/06/29 01:20:00;;;;;;;767.63;730.00;;;;;;;20.87;78.13;99637.69;5002440;28;20204;-71
2022/06/29 01:22:28;;;;;;;803.80;764.15;;;;;;;20.76;79.42;99643.53;4985526;28;20207;-71
2022/06/29 01:24:56;;;;;;;865.60;820.42;;;;;;;20.72;80.48;99650.84;5017435;28;20234;-72
2022/06/29 01:27:24;;;;;;;860.80;816.00;;;20.20;99.90;;;20.75;79.05;99644.47;5013892;28;20219;-71
2022/06/29 01:29:53;;;;;;;885.13;836.17;;;;;;;20.74;79.04;99646.28;5015606;28;20577;-72
2022/06/29 01:32:22;;;;;;;843.10;798.90;;;;;;;20.76;78.90;99643.53;5017647;28;20243;-72
2022/06/29 01:34:50;;;;;;;852.50;807.33;;;20.10;99.90;;;20.75;78.55;99652.53;4993790;28;20228;-72
2022/06/29 01:37:18;;;;;;;879.80;831.75;;;;;;;20.74;79.18;99659.72;5014835;28;20208;-72
2022/06/29 01:39:47;;;;;;;852.20;808.60;;;;;;;20.75;79.40;99661.47;5015362;28;20208;-71
2022/06/29 01:42:15;;;;;;;862.17;816.25;;;;;;;20.70;78.68;99639.28;5007284;28;20204;-73
2022/06/29 01:44:43;;;;;;;811.53;770.88;;;;;;;20.69;79.02;99647.41;4994506;28;20236;-73
2022/06/29 01:47:11;;;;;;;734.20;698.63;;;20.50;99.90;;;20.65;79.47;99646.69;5021809;28;20207;-73
2022/06/29 01:49:39;;;;;;;698.83;665.47;;;;;;;20.57;80.52;99647.97;5025769;28;20214;-73
2022/06/29 01:52:07;;;;;;;755.97;719.20;;;20.40;99.90;;;20.57;81.51;99673.03;5003039;28;20231;-73
2022/06/29 01:54:35;;;;;;;703.83;669.50;;;;;;;20.50;81.51;99674.22;5007497;28;20235;-75
2022/06/29 01:57:03;;;;;;;779.40;740.95;;;;;;;20.51;82.13;99686.72;5010385;28;20663;-71
2022/06/29 01:59:32;;;;;;;751.53;714.13;;;;;;;20.46;82.01;99688.72;5015520;28;20210;-71
2022/06/29 02:01:59;;;;;;;859.58;813.88;;;20.00;99.90;;;20.37;82.78;99683.72;5013626;28;20204;-71
2022/06/29 02:04:28;;;;;;;746.85;710.13;;;;;;;20.34;83.21;99687.41;5014758;28;20239;-72
2022/06/29 02:06:56;;;;;;;841.20;796.88;;;;;;;20.29;83.83;99697.47;5018144;28;20208;-71
2022/06/29 02:09:24;;;;;;;847.10;803.38;;;;;;;20.23;85.42;99713.84;5015783;28;20208;-72
2022/06/29 02:11:52;;;;;;;873.40;825.85;;;;;;;20.22;85.58;99730.03;5024655;28;20256;-72
2022/06/29 02:14:20;;;;;;;879.58;828.80;;;;;;;20.17;86.23;99732.91;5014035;28;20236;-72
2022/06/29 02:16:48;;;;;;;869.85;819.35;;;20.10;99.90;;;20.13;86.76;99745.56;5013394;28;20208;-72
2022/06/29 02:19:17;;;;;;;867.35;819.67;;;;;;;20.15;86.57;99748.19;5013515;28;20215;-72
2022/06/29 02:21:45;;;;;;;861.80;813.03;;;;;;;20.12;85.53;99742.94;5008279;28;20204;-73
2022/06/29 02:24:13;;;;;;;864.28;814.80;;;;;;;20.05;86.67;99755.75;5017309;28;20228;-74
2022/06/29 02:26:41;;;;;;;854.63;807.10;;;19.80;99.90;;;20.05;87.65;99771.84;5012588;28;20211;-75
2022/06/29 02:29:09;;;;;;;867.83;818.03;;;;;;;20.06;86.21;99762.84;5018958;28;20212;-75
2022/06/29 02:37:15;;;;;;;687.22;654.13;;;19.70;99.90;;;19.98;87.29;99780.22;5014182;28;20211;-72
2022/06/29 02:39:44;;;;;;;463.08;442.55;;;19.80;99.90;;;19.93;86.42;99769.66;5004363;28;20210;-72
2022/06/29 02:42:13;;;;;;;269.85;258.55;;;19.80;99.90;;;19.90;87.16;99771.59;5013752;28;20203;-72
2022/06/29 02:44:42;;;;;;;484.80;462.73;;;19.60;99.90;;;19.96;87.89;99800.88;5013637;28;20236;-72
2022/06/29 02:47:11;;;;;;;404.27;387.05;;;;;;;19.88;86.20;99776.13;5014033;28;20208;-72
2022/06/29 02:49:39;;;;;;;643.97;613.67;;;;;;;19.84;85.56;99764.66;5003083;28;20209;-73
2022/06/29 02:52:07;;;;;;;702.90;669.00;;;19.50;99.90;;;19.88;86.25;99770.78;5012767;28;20437;-72
2022/06/29 02:54:35;;;;;;;528.38;503.45;;;19.60;99.90;;;19.85;85.63;99765.53;5011494;28;20235;-73
2022/06/29 02:57:03;;;;;;;368.17;352.25;;;19.60;99.90;;;19.88;86.27;99784.19;5000085;28;20214;-72
2022/06/29 02:59:31;;;;;;;259.98;249.20;;;19.60;99.90;;;19.83;86.67;99792.41;5025404;28;20196;-72
2022/06/29 03:02:00;;;;;;;229.40;219.98;;;19.60;99.90;;;19.84;86.07;99786.13;5027958;28;20215;-73
2022/06/29 03:04:27;;;;;;;279.80;267.17;;;19.60;99.90;;;19.85;87.21;99808.47;5011799;28;20235;-73
2022/06/29 03:06:55;;;;;;;153.90;147.02;;;19.60;99.90;;;19.85;86.63;99793.22;5016462;28;20200;-72
2022/06/29 03:09:23;;;;;;;132.38;126.85;;;19.60;99.90;;;19.87;87.29;99812.84;5016657;28;20204;-73
2022/06/29 03:11:51;;;;;;;157.30;150.00;;;19.60;99.90;;;19.81;87.41;99811.25;4995302;28;20231;-72
2022/06/29 03:14:19;;;;;;;150.35;144.00;;;19.60;99.90;;;19.77;88.92;99820.34;4997818;28;20286;-72
2022/06/29 03:16:47;;;;;;;176.25;167.73;;;19.60;99.90;;;19.78;88.48;99826.59;5019154;28;20227;-72
2022/06/29 03:19:15;;;;;;;156.90;150.05;;;19.60;99.90;;;19.80;89.17;99835.47;4999760;28;20215;-72
2022/06/29 03:21:43;;;;;;;182.35;174.50;;;19.60;99.90;;;19.87;87.81;99825.38;4995946;28;20212;-72
2022/06/29 03:24:11;;;;;;;166.13;157.80;;;19.60;99.90;;;19.82;88.50;99830.91;5014858;28;20219;-72
2022/06/29 03:26:39;;;;;;;147.52;141.18;;;19.60;99.90;;;19.83;88.01;99829.09;4995462;28;20280;-72
2022/06/29 03:29:07;;;;;;;98.82;94.75;;;19.60;99.90;;;19.84;86.86;99812.94;5012984;28;20242;-72
2022/06/29 03:31:35;;;;;;;95.22;90.82;;;19.60;99.90;;;19.85;86.49;99814.69;4987236;28;20231;-73
2022/06/29 03:34:03;;;;;;;91.13;86.75;;;19.60;99.90;;;19.80;86.81;99814.00;4993903;28;20227;-73
2022/06/29 03:36:31;;;;;;;85.60;81.88;;;19.60;99.90;;;19.85;86.96;99817.38;5007484;28;20196;-73
2022/06/29 03:38:59;;;;;;;95.13;90.60;;;19.60;99.90;;;19.82;86.83;99820.19;5011315;28;20200;-73
2022/06/29 03:41:27;;;;;;;82.15;78.32;;;19.60;99.90;;;19.84;87.52;99834.41;5019270;28;20218;-72
2022/06/29 03:43:54;;;;;;;72.50;68.53;;;19.60;99.90;;;19.85;86.95;99828.13;5032661;28;20215;-73
2022/06/29 03:46:22;;;;;;;65.07;61.50;;;19.60;99.90;;;19.83;87.54;99834.47;5013945;28;20211;-74
2022/06/29 03:48:50;;;;;;;62.13;58.83;;;19.60;99.90;;;19.86;89.01;99862.06;4992770;28;20200;-73
2022/06/29 03:51:18;;;;;;;60.65;57.40;;;19.60;99.90;;;19.87;88.59;99858.44;4993786;28;20693;-74
2022/06/29 03:53:46;;;;;;;63.00;59.25;;;19.60;99.90;;;19.85;87.93;99862.13;5009440;28;20200;-73
2022/06/29 03:56:14;;;;;;;68.95;65.85;;;19.60;99.90;;;19.88;88.52;99864.69;4992904;28;20231;-72
2022/06/29 03:58:42;;;;;;;80.70;76.80;;;19.60;99.90;;;19.83;89.70;99883.66;5015106;28;20208;-72
2022/06/29 04:01:10;;;;;;;86.15;81.85;;;19.60;99.90;;;19.84;89.23;99881.84;5008974;28;20222;-72
2022/06/29 04:03:38;;;;;;;64.63;61.70;;;19.60;99.90;;;19.88;89.16;99895.09;5012110;28;20212;-72
2022/06/29 04:06:06;;;;;;;70.25;66.32;;;19.70;99.90;;;19.96;89.30;99890.31;5012970;28;20224;-73
2022/06/29 04:08:35;;;;;;;67.03;63.88;;;19.70;99.90;;;19.96;89.74;99902.84;5011472;28;20200;-73
2022/06/29 04:11:48;;;;;;;76.35;72.43;;;19.70;99.90;;;19.96;89.48;99905.53;5009699;28;20212;-73
2022/06/29 04:13:52;;;;;;;76.60;72.13;;;19.70;99.90;;;19.99;89.55;99908.09;5006969;28;20238;-73
2022/06/29 04:16:21;;;;;;;73.30;69.95;;;19.70;99.90;;;19.97;87.38;99878.63;5012869;28;20208;-74
2022/06/29 04:18:49;;;;;;;78.55;74.45;;;19.80;99.90;;;19.99;87.55;99879.44;5009315;28;20223;-72
2022/06/29 04:21:17;;;;;;;82.85;78.70;;;19.80;99.90;;;20.03;87.51;99886.44;5009290;28;20223;-74
2022/06/29 04:23:45;;;;;;;92.57;87.97;;;19.80;99.90;;;20.04;87.62;99881.97;5008645;28;20222;-73
2022/06/29 04:26:12;;;;;;;82.57;78.68;;;19.80;99.90;;;20.06;89.90;99912.28;5013254;28;20224;-72
2022/06/29 04:28:40;;;;;;;70.47;67.07;;;19.80;99.90;;;20.13;89.47;99919.19;5010262;28;20542;-73
2022/06/29 04:31:08;;;;;;;61.00;56.80;;;19.90;99.90;;;20.20;88.94;99925.19;5010134;28;20204;-73
2022/06/29 04:33:36;;;;;;;82.53;78.03;;;19.90;99.90;;;20.17;89.01;99911.88;5008362;28;20256;-73
2022/06/29 04:36:04;;;;;;;79.32;74.68;;;20.00;99.90;;;20.20;90.40;99928.75;5009223;28;20232;-73
2022/06/29 04:38:32;;;;;;;101.47;95.68;;;20.00;99.90;;;20.17;90.01;99923.50;4994476;28;20238;-75
2022/06/29 04:41:00;;;;;;;102.13;97.15;;;20.00;99.90;;;20.25;90.59;99948.25;4987912;28;20220;-76
2022/06/29 04:43:29;;;;;;;97.93;93.22;;;20.00;99.90;;;20.25;90.55;99942.00;5004049;28;20204;-75
2022/06/29 04:48:46;;;;;;;128.13;122.47;;;20.10;99.90;;;20.26;89.62;99922.28;4995090;28;20216;-74
2022/06/29 04:51:17;;;;;;;136.93;130.45;;;20.10;99.90;;;20.30;89.03;99916.72;5009940;28;20223;-74
2022/06/29 04:53:47;;;;;;;140.45;133.95;;;20.10;99.90;;;20.35;86.89;99901.31;5010317;28;20629;-74
2022/06/29 04:56:16;;;;;;;207.55;197.63;;;20.10;99.90;;;20.36;87.10;99910.22;5011985;28;20231;-73
2022/06/29 04:58:44;;;;;;;264.17;252.13;;;20.10;99.90;;;20.37;87.31;99902.13;5016859;28;20208;-73
2022/06/29 05:01:12;;;;;;;248.52;237.45;;;20.10;99.90;;;20.33;88.04;99908.53;5010125;28;20581;-73
2022/06/29 05:03:40;;;;;;;309.75;294.92;;;20.10;99.90;;;20.35;89.36;99928.16;5017447;28;20215;-74
2022/06/29 05:06:09;;;;;;;186.90;178.38;;;;;;;20.39;88.16;99915.53;5011697;28;20223;-74
2022/06/29 05:08:37;;;;;;;193.98;184.38;;;20.20;99.90;;;20.43;87.95;99919.84;5015021;28;20212;-75
2022/06/29 05:11:05;;;;;;;146.18;139.13;;;20.20;99.90;;;20.46;89.54;99938.50;4992880;28;20212;-75
2022/06/29 05:13:33;;;;;;;156.75;149.05;;;20.30;99.90;;;20.48;87.92;99928.59;5011131;28;20688;-74
2022/06/29 05:16:01;;;;;;;152.77;144.02;;;20.30;99.90;;;20.45;88.32;99928.72;5017000;28;20219;-74
2022/06/29 05:18:29;;;;;;;142.05;135.38;;;20.30;99.90;;;20.50;90.45;99955.38;4992935;28;20664;-74
2022/06/29 05:20:57;;;;;;;132.48;126.55;;;19.00;99.90;;;20.50;90.39;99958.94;5012601;28;20671;-74
2022/06/29 05:23:25;;;;;;;142.05;134.55;;;20.30;99.90;;;20.59;89.08;99963.97;5017265;28;20199;-74
2022/06/29 05:25:53;;;;;;;129.82;123.80;;;20.30;99.90;;;20.67;91.17;99982.47;5010813;28;20695;-73
2022/06/29 05:28:21;;;;;;;154.00;147.27;;;20.40;99.90;;;20.65;90.47;99987.91;5015551;28;20215;-72
2022/06/29 05:30:50;;;;;;;166.73;159.48;;;20.40;99.90;;;20.63;88.91;99962.03;5027866;28;20204;-73
2022/06/29 05:33:18;;;;;;;199.70;190.95;;;20.40;99.90;;;20.57;88.66;99949.72;5011268;28;20232;-72
2022/06/29 05:35:46;;;;;;;208.95;200.23;;;20.40;99.90;;;20.71;88.59;99959.91;5012876;28;20220;-72
2022/06/29 05:38:14;;;;;;;244.77;234.07;;;20.40;99.90;;;20.72;88.67;99967.91;5015446;28;20204;-72
2022/06/29 05:40:44;;;;;;;287.13;274.42;;;20.40;99.90;;;20.71;88.46;99955.41;5015243;28;20200;-74
2022/06/29 05:43:11;;;;;;;303.83;291.02;;;20.50;99.90;;;20.80;90.11;99978.34;5015633;28;20208;-73
2022/06/29 05:45:39;;;;;;;354.85;339.38;;;20.60;99.90;;;20.92;90.49;100001.19;5023792;28;20223;-72
2022/06/29 05:48:08;;;;;;;347.77;331.77;;;20.80;99.90;;;20.97;90.86;100008.13;5027889;28;20207;-72
2022/06/29 05:50:36;;;;;;;172.15;164.68;;;20.70;99.90;;;20.99;89.79;99987.44;5015651;28;20203;-72
2022/06/29 05:53:04;;;;;;;250.80;239.98;;;20.80;99.90;;;21.05;90.81;100015.91;4998029;28;20240;-72
2022/06/29 05:55:32;;;;;;;292.83;280.33;;;20.80;99.90;;;21.06;90.14;100028.41;5013546;28;20228;-72
2022/06/29 05:58:00;;;;;;;298.48;285.52;;;20.90;99.90;;;21.11;88.33;99998.63;5015049;28;20204;-73
2022/06/29 06:00:28;;;;;;;247.70;236.95;;;21.00;99.90;;;21.22;88.29;99999.06;5015066;28;20219;-72
2022/06/29 06:02:56;;;;;;;217.52;208.05;;;21.00;99.90;;;21.27;88.89;100008.72;4997451;28;20204;-72
2022/06/29 06:05:24;;;;;;;253.77;242.80;;;21.00;99.90;;;21.26;86.51;99988.16;5010008;28;20236;-72
2022/06/29 06:07:52;;;;;;;357.27;341.00;;;21.10;99.90;;;21.29;84.51;99946.81;4995461;28;20287;-74
2022/06/29 06:10:20;;;;;;;446.80;426.63;;;21.20;99.90;;;21.27;84.52;99936.13;5000927;28;20200;-73
2022/06/29 06:12:48;;;;;;;346.58;331.52;;;;;;;21.40;85.52;99947.22;5030466;28;20207;-74
2022/06/29 06:15:16;;;;;;;187.73;179.45;;;21.20;99.90;;;21.48;88.16;99990.81;5016505;28;20226;-73
2022/06/29 06:17:44;;;;;;;216.13;206.77;;;21.30;99.90;;;21.56;87.95;100010.19;5018491;28;20656;-74
2022/06/29 06:20:12;;;;;;;354.55;339.05;;;21.40;99.90;;;21.52;86.17;99978.97;5014750;28;20212;-75
2022/06/29 06:22:40;;;;;;;440.92;420.55;;;21.40;99.90;;;21.55;86.96;99986.91;5024008;28;20211;-74
2022/06/29 06:25:08;;;;;;;515.60;491.70;;;21.40;99.90;;;21.46;86.46;99967.59;5024611;28;20219;-75
2022/06/29 06:27:37;;;;;;;382.85;365.42;;;;;;;21.37;86.84;99967.06;5003704;28;20223;-75
2022/06/29 06:30:05;;;;;;;720.97;685.92;;;21.20;99.90;;;21.28;87.81;99967.44;5014030;28;20215;-75
2022/06/29 06:32:34;;;;;;;563.75;536.80;;;;;;;21.18;87.57;99949.91;5006748;28;20204;-75
2022/06/29 06:35:02;;;;;;;515.15;491.13;;;;;;;21.27;85.99;99949.56;5008617;28;20270;-76
2022/06/29 06:37:30;;;;;;;613.83;584.50;;;;;;;21.35;85.25;99936.66;5022572;28;20203;-75
2022/06/29 06:42:45;;;;;;;798.13;758.22;;;;;;;21.78;86.53;99994.00;5028563;28;20568;-73
2022/06/29 06:45:13;;;;;;;782.95;743.22;;;;;;;21.88;84.65;99981.00;5015795;28;20691;-74
2022/06/29 06:47:41;;;;;;;564.35;537.85;;;21.80;99.90;;;21.99;84.53;99986.78;5013431;28;20680;-73
2022/06/29 06:50:09;;;;;;;622.65;592.47;;;21.80;99.90;;;22.01;85.92;100001.03;5017635;28;20218;-73
2022/06/29 06:52:38;;;;;;;669.92;637.25;;;;;;;22.00;84.46;99989.41;5030531;28;20206;-73
2022/06/29 06:55:06;;;;;;;684.67;651.05;;;21.80;99.90;;;21.76;85.52;99962.69;5016222;28;20235;-73
2022/06/29 06:57:34;;;;;;;730.67;685.30;;;21.80;99.90;;;21.86;85.60;99974.81;5013489;28;20700;-76
2022/06/29 07:00:04;;;;;;;485.60;462.73;;;22.00;99.90;;;22.18;83.68;99978.81;5013878;28;20466;-73
2022/06/29 07:02:32;;;;;;;934.88;881.80;;;;;;;22.10;80.66;99929.78;5014146;28;20234;-73
2022/06/29 07:05:00;;;;;;;7.70;7.00;;;22.00;99.90;;;22.56;81.33;99969.81;5013754;28;20223;-74
2022/06/29 07:07:28;;;;;;;7.55;5.35;;;22.20;99.90;;;22.65;82.72;99985.53;5014020;28;20212;-73
2022/06/29 07:09:56;;;;;;;6.63;5.78;;;22.40;99.90;;;22.68;82.45;99982.69;5014063;28;20204;-73
2022/06/29 07:12:24;;;;;;;51.00;48.35;;;22.50;99.90;;;22.62;82.15;99960.56;5021409;28;20656;-74
2022/06/29 07:14:52;;;;;;;113.93;107.85;;;22.50;99.90;;;22.75;81.01;99940.16;5027225;28;20254;-74
2022/06/29 07:17:20;;;;;;;151.80;144.15;;;22.80;99.90;;;23.06;80.46;99950.31;4996577;28;20208;-74
2022/06/29 07:19:49;;;;;;;150.80;143.32;;;22.80;99.90;;;23.33;79.98;99957.97;4980249;28;20207;-74
2022/06/29 07:22:17;;;;;;;466.13;441.40;;;;;;;23.53;79.87;99972.22;5012729;28;20219;-75
2022/06/29 07:24:45;;;;;;;549.65;521.17;;;;;;;23.47;78.05;99905.06;4995538;28;20230;-75
2022/06/29 07:27:14;;;;;;;774.55;732.20;;;;;;;23.73;80.91;99946.03;5006899;28;20203;-74
2022/06/29 07:29:42;;;;;;;714.92;675.63;;;23.60;99.90;;;23.50;80.93;99931.91;5033180;28;20202;-73
2022/06/29 07:32:10;;;;;;;520.13;493.38;;;23.60;99.90;;;23.58;78.70;99901.84;5001537;28;20200;-74
2022/06/29 07:34:38;;;;;;;584.55;553.63;;;23.70;99.90;;;23.75;79.53;99917.13;4995655;28;20240;-74
2022/06/29 07:37:07;;;;;;;587.70;557.10;;;23.80;99.90;;;23.90;81.18;99944.19;5013609;28;20218;-73
2022/06/29 07:39:36;;;;;;;783.47;740.63;;;23.90;99.90;;;23.71;79.29;99908.34;5013244;28;20218;-73
2022/06/29 07:42:23;;;;;;;573.28;543.10;;;24.00;99.90;;;24.24;77.94;99910.81;4995764;28;20208;-75
2022/06/29 07:44:51;;;;;;;663.03;626.65;;;24.50;99.90;;;24.32;78.76;99909.53;5013101;28;20239;-73
2022/06/29 07:47:19;;;;;;;444.42;420.02;;;24.50;99.90;;;24.21;77.31;99881.25;4963265;28;20195;-74
2022/06/29 07:49:47;;;;;;;216.32;205.75;;;24.50;99.90;;;24.89;77.49;99914.38;5013460;28;20199;-76
2022/06/29 07:52:15;;;;;;;406.15;383.92;;;24.70;99.90;;;24.46;76.04;99828.56;5013047;28;20206;-75
2022/06/29 07:54:43;;;;;;;601.45;567.78;;;;;;;25.44;77.21;99921.06;4994613;28;20250;-75
2022/06/29 07:57:11;;;;;;;479.23;452.92;;;25.40;99.90;;;25.42;75.58;99877.84;5013140;28;20212;-75
2022/06/29 07:59:42;;;;;;;741.78;699.30;;;25.60;99.90;;;24.76;73.63;99767.31;5012184;28;20203;-73
2022/06/29 08:02:10;;;;;;;1144.20;999.90;;;25.70;99.90;;;25.58;73.48;99830.88;5018548;28;20207;-74
2022/06/29 08:04:39;;;;;;;1140.07;999.90;;;26.10;99.90;;;25.45;73.48;99780.22;5012134;28;20230;-77
2022/06/29 08:07:27;;;;;;;1101.80;999.90;;;26.50;99.90;;;25.38;76.06;99813.16;4998335;28;20207;-74
2022/06/29 08:09:55;;;;;;;950.75;895.53;;;26.50;99.90;;;25.58;74.56;99814.63;4991915;28;20204;-73
2022/06/29 08:12:23;;;;;;;1137.20;999.90;;;26.60;99.90;;;25.76;77.16;99846.00;4987103;28;20199;-74
2022/06/29 08:14:51;;;;;;;1138.15;999.90;;;26.60;99.90;;;26.14;77.96;99881.53;5011971;28;20234;-73
2022/06/29 08:17:19;;;;;;;1152.18;999.90;;;26.80;99.90;;;26.17;78.28;99867.78;5001939;28;20204;-74
2022/06/29 08:19:47;;;;;;;1148.00;999.90;;;27.10;99.90;;;25.65;75.38;99770.88;4993553;28;20203;-74
2022/06/29 08:22:15;;;;;;;1147.47;999.90;;;27.10;99.90;;;25.57;77.54;99783.97;5001392;28;20208;-75
2022/06/29 08:24:43;;;;;;;1140.65;999.90;;;26.90;99.90;;;25.33;74.17;99716.03;5018935;28;20230;-76
2022/06/29 08:27:11;;;;;;;1140.22;999.90;;;26.60;99.90;;;26.11;74.71;99795.88;4982945;28;20248;-75
2022/06/29 08:30:00;;;;;;;1160.22;999.90;;;27.70;99.90;;;25.99;74.34;99749.72;5011792;28;20211;-76
2022/06/29 08:32:28;;;;;;;1171.32;999.90;;;27.60;99.90;;;25.82;78.27;99788.75;5011572;28;20222;-73
2022/06/29 08:35:01;;;;;;;1166.50;999.90;;;27.50;99.90;;;26.33;79.39;99851.44;4991352;28;20700;-74
2022/06/29 08:37:40;;;;;;;1177.38;999.90;;;28.00;99.90;;;26.20;75.36;99785.41;4993245;28;20199;-75
2022/06/29 08:40:11;;;;;;;1193.78;999.90;;;28.00;99.90;;;27.03;71.97;99797.91;4992707;28;20216;-74
2022/06/29 08:42:40;;;;;;;1183.30;999.90;;;28.60;99.90;;;27.09;71.42;99748.63;4993376;28;20208;-75
2022/06/29 08:45:10;;;;;;;1193.00;999.90;;;29.30;99.90;;;25.79;74.60;99631.84;5023789;28;20226;-74
2022/06/29 08:47:41;;;;;;;1190.80;999.90;;;27.90;99.90;;;25.37;75.39;99622.84;5031907;28;20206;-74
2022/06/29 08:50:12;;;;;;;1188.07;999.90;;;27.90;99.90;;;26.03;77.33;99726.91;5012357;28;20203;-74
2022/06/29 08:52:43;;;;;;;1187.32;999.90;;;28.10;99.90;;;26.63;76.46;99778.03;4994685;28;20204;-74
2022/06/29 08:55:11;;;;;;;1193.00;999.90;;;28.50;99.90;;;26.60;75.08;99746.56;5011227;28;20231;-74
2022/06/29 08:57:42;;;;;;;1195.35;999.90;;;29.00;99.90;;;26.56;75.50;99746.88;5011558;28;20207;-74
2022/06/29 09:00:11;;;;;;;1197.80;999.90;;;29.00;99.90;;;26.80;73.83;99742.50;5005129;28;20219;-74
2022/06/29 09:02:40;;;;;;;1193.10;999.90;;;29.70;99.90;;;27.50;71.70;99763.88;5031964;28;20203;-74
2022/06/29 09:05:09;;;;;;;1195.68;999.90;;;29.70;99.90;;;27.14;71.26;99700.31;5013515;28;20222;-74
2022/06/29 09:07:37;;;;;;;1200.20;999.90;;;;;;;27.39;69.58;99692.19;4997652;28;20210;-73
2022/06/29 09:10:12;;;;;;;1202.90;999.90;;;29.80;99.90;;;26.65;72.90;99632.34;5029690;28;20206;-74
2022/06/29 09:12:41;;;;;;;1200.45;999.90;;;;;;;26.92;72.65;99678.38;5010966;28;20206;-74
2022/06/29 09:15:10;;;;;;;1207.38;999.90;;;29.60;99.90;;;26.91;68.81;99608.81;4993057;28;20242;-76
2022/06/29 09:17:39;;;;;;;1211.43;999.90;;;29.80;99.90;;;27.26;70.81;99668.72;5011717;28;20195;-75
2022/06/29 09:20:11;;;;;;;1212.18;999.90;;;30.20;99.90;;;28.17;71.47;99748.09;4994295;28;20211;-74
2022/06/29 09:23:00;;;;;;;1212.10;999.90;;;;;;;27.86;72.15;99714.19;5010756;28;20203;-74
2022/06/29 09:25:32;;;;;;;1213.45;999.90;;;30.10;99.90;;;27.49;71.63;99646.22;4997075;28;20226;-76
2022/06/29 09:28:00;;;;;;;1218.18;999.90;;;;;;;27.86;74.76;99716.91;5005325;28;20217;-75
2022/06/29 09:30:35;;;;;;;1221.43;999.90;;;29.50;99.90;;;27.28;72.83;99620.63;5013560;28;20199;-74
2022/06/29 09:33:06;;;;;;;1229.05;999.90;;;29.70;99.90;;;27.67;73.14;99671.19;4994092;28;20199;-74
2022/06/29 09:35:37;;;;;;;1219.57;999.90;;;30.00;99.90;;;27.72;72.07;99661.72;5007818;28;20243;-72
2022/06/29 09:38:26;;;;;;;1224.32;999.90;;;30.50;99.90;;;28.91;69.69;99690.75;4990804;28;20204;-73
2022/06/29 09:41:04;;;;;;;1233.38;999.90;;;30.30;99.90;;;28.45;72.57;99668.06;4995210;28;20204;-73
2022/06/29 09:43:39;;;;;;;1236.80;999.90;;;30.80;99.90;;;28.77;73.48;99701.84;5011532;28;20210;-73
2022/06/29 09:46:16;;;;;;;1245.28;999.90;;;31.30;99.90;;;29.17;71.98;99696.88;5010609;28;20228;-73
2022/06/29 09:48:45;;;;;;;1245.18;999.90;;;31.10;99.90;;;28.21;72.15;99602.81;5015667;28;20214;-73
2022/06/29 09:51:31;;;;;;;1255.68;999.90;;;;;;;27.58;73.61;99569.50;5011526;28;20214;-73
2022/06/29 09:54:07;;;;;;;1249.88;999.90;;;30.20;99.90;;;27.78;75.87;99626.94;5010872;28;20203;-73
2022/06/29 09:56:44;;;;;;;1244.18;999.90;;;30.00;99.90;;;27.72;74.82;99606.53;5009661;28;20249;-73
2022/06/29 09:59:22;;;;;;;1214.93;999.90;;;30.10;99.90;;;28.15;75.63;99655.78;5003704;28;20207;-73
2022/06/29 10:04:38;;;;;;;1198.95;999.90;;;30.50;99.90;;;28.47;72.38;99647.06;5021894;28;20227;-73
2022/06/29 10:07:06;;;;;;;1205.75;999.90;;;;;;;28.50;73.31;99641.38;4962332;28;20213;-73
2022/06/29 10:09:34;;;;;;;1236.85;999.90;;;30.60;99.90;;;28.74;72.70;99644.06;5012280;28;20206;-72
2022/06/29 10:15:25;;;;;;;1284.88;999.90;;;30.90;99.90;;;28.91;72.00;99609.13;5005022;28;20246;-72
2022/06/29 10:18:34;;;;;;;1326.60;999.90;;;30.80;99.90;;;29.13;71.82;99638.19;5008619;28;20211;-72
2022/06/29 10:21:12;;;;;;;1202.80;999.90;;;30.80;99.90;;;28.98;71.08;99583.13;5005552;28;20222;-72
2022/06/29 10:23:46;;;;;;;1206.20;999.90;;;30.50;99.90;;;28.61;71.78;99551.66;4991383;28;20206;-72
2022/06/29 10:26:35;;;;;;;1220.57;999.90;;;31.00;99.90;;;29.18;72.11;99605.16;5014135;28;20255;-73
2022/06/29 10:29:06;;;;;;;1204.93;999.90;;;31.10;99.90;;;29.07;71.44;99578.81;5022646;28;20225;-73
2022/06/29 10:31:56;;;;;;;1238.65;999.90;;;31.80;99.90;;;29.79;69.40;99606.44;5014163;28;20210;-75
2022/06/29 10:34:30;;;;;;;1227.80;999.90;;;32.70;99.90;;;30.62;67.64;99605.78;5014258;28;20235;-74
2022/06/29 10:37:08;;;;;;;1211.95;999.90;;;31.80;99.90;;;28.92;68.13;99423.06;5025908;28;20225;-76